createdAt,value
2023-04-07T00:00:43.571Z,17.37
2023-04-07T00:03:11.613Z,17.87
2023-04-07T00:05:39.705Z,17.50
2023-04-07T00:08:07.688Z,17.63
2023-04-07T00:10:35.958Z,17.03
2023-04-07T00:13:05.397Z,17.47
2023-04-07T00:15:33.445Z,16.77
2023-04-07T00:18:01.503Z,18.10
2023-04-07T00:20:29.652Z,17.47
2023-04-07T00:22:57.563Z,16.80
2023-04-07T00:25:25.514Z,17.37
2023-04-07T00:27:53.515Z,17.53
2023-04-07T00:30:23.010Z,16.53
2023-04-07T00:32:51.529Z,15.97
2023-04-07T00:35:19.702Z,16.27
2023-04-07T00:37:47.667Z,15.00
2023-04-07T00:40:15.738Z,16.20
2023-04-07T00:42:43.761Z,16.27
2023-04-07T00:45:12.850Z,16.00
2023-04-07T00:47:42.443Z,14.90
2023-04-07T00:50:11.167Z,15.90
2023-04-07T00:52:39.229Z,15.17
2023-04-07T00:55:07.990Z,15.87
2023-04-07T00:57:36.002Z,15.27
2023-04-07T01:00:05.493Z,15.07
2023-04-07T01:02:39.112Z,14.70
2023-04-07T01:05:16.254Z,15.27
2023-04-07T01:07:53.302Z,15.77
2023-04-07T01:10:28.523Z,15.07
2023-04-07T01:13:04.117Z,14.33
2023-04-07T01:15:34.196Z,15.40
2023-04-07T01:18:10.020Z,14.90
2023-04-07T01:20:41.240Z,14.63
2023-04-07T01:23:09.531Z,15.17
2023-04-07T01:25:55.089Z,15.50
2023-04-07T01:28:42.986Z,18.80
2023-04-07T01:31:14.139Z,20.30
2023-04-07T01:33:46.524Z,18.53
2023-04-07T01:36:15.680Z,18.80
2023-04-07T01:38:45.594Z,19.73
2023-04-07T01:41:16.089Z,19.60
2023-04-07T01:43:45.251Z,20.03
2023-04-07T01:46:16.029Z,18.57
2023-04-07T01:48:44.396Z,20.20
2023-04-07T01:51:17.657Z,19.33
2023-04-07T01:53:46.309Z,19.93
2023-04-07T01:56:14.360Z,21.83
2023-04-07T01:58:42.465Z,20.80
2023-04-07T02:01:10.654Z,23.73
2023-04-07T02:03:45.627Z,22.30
2023-04-07T02:06:19.257Z,22.77
2023-04-07T02:08:50.422Z,21.00
2023-04-07T02:11:22.147Z,21.90
2023-04-07T02:13:52.618Z,20.23
2023-04-07T02:16:22.705Z,21.97
2023-04-07T02:18:53.913Z,24.23
2023-04-07T02:21:23.016Z,20.83
2023-04-07T02:23:51.089Z,20.27
2023-04-07T02:26:19.065Z,22.77
2023-04-07T02:28:47.030Z,19.43
2023-04-07T02:31:15.061Z,20.57
2023-04-07T02:33:42.983Z,19.20
2023-04-07T02:36:12.360Z,17.03
2023-04-07T02:38:40.361Z,21.87
2023-04-07T02:41:08.405Z,21.37
2023-04-07T02:43:36.385Z,21.97
2023-04-07T02:46:04.475Z,22.53
2023-04-07T02:48:32.396Z,21.47
2023-04-07T02:51:00.447Z,23.60
2023-04-07T02:53:29.818Z,24.33
2023-04-07T02:55:57.806Z,28.37
2023-04-07T02:58:25.786Z,24.13
2023-04-07T03:00:53.894Z,25.63
2023-04-07T03:03:22.064Z,25.67
2023-04-07T03:05:50.209Z,24.53
2023-04-07T03:08:18.206Z,22.33
2023-04-07T03:10:47.645Z,16.73
2023-04-07T03:13:16.597Z,15.80
2023-04-07T03:15:45.223Z,16.80
2023-04-07T03:18:13.234Z,16.10
2023-04-07T03:20:42.016Z,18.10
2023-04-07T03:23:10.250Z,18.13
2023-04-07T03:25:38.195Z,16.70
2023-04-07T03:28:07.678Z,16.13
2023-04-07T03:30:35.679Z,17.90
2023-04-07T03:33:03.969Z,17.73
2023-04-07T03:35:31.998Z,17.67
2023-04-07T03:37:59.925Z,17.00
2023-04-07T03:40:27.957Z,19.53
2023-04-07T03:42:55.874Z,21.03
2023-04-07T03:45:25.189Z,20.43
2023-04-07T03:47:54.360Z,22.17
2023-04-07T03:50:22.501Z,21.13
2023-04-07T03:52:50.803Z,22.70
2023-04-07T03:55:18.967Z,23.60
2023-04-07T03:57:47.025Z,26.60
2023-04-07T04:00:15.527Z,26.03
2023-04-07T04:02:44.930Z,27.27
2023-04-07T04:05:12.997Z,29.47
2023-04-07T04:07:41.002Z,29.17
2023-04-07T04:10:10.007Z,29.20
2023-04-07T04:12:38.006Z,29.40
2023-04-07T04:15:06.573Z,27.87
2023-04-07T04:17:34.600Z,28.13
2023-04-07T04:20:04.076Z,25.37
2023-04-07T04:22:32.120Z,23.17
2023-04-07T04:25:00.649Z,23.00
2023-04-07T04:27:29.144Z,21.83
2023-04-07T04:29:57.126Z,22.87
2023-04-07T04:32:25.476Z,21.37
2023-04-07T04:34:53.436Z,22.23
2023-04-07T04:37:23.043Z,20.80
2023-04-07T04:39:51.365Z,20.77
2023-04-07T04:42:19.325Z,19.97
2023-04-07T04:44:47.320Z,21.30
2023-04-07T04:47:15.687Z,20.83
2023-04-07T04:49:43.739Z,20.60
2023-04-07T04:52:11.753Z,20.07
2023-04-07T04:54:41.168Z,20.43
2023-04-07T04:57:09.198Z,20.10
2023-04-07T04:59:37.148Z,21.00
2023-04-07T05:02:05.188Z,22.47
2023-04-07T05:04:33.647Z,18.73
2023-04-07T05:07:01.649Z,19.33
2023-04-07T05:09:29.592Z,20.83
2023-04-07T05:11:59.146Z,21.20
2023-04-07T05:14:27.150Z,21.07
2023-04-07T05:16:55.366Z,20.97
2023-04-07T05:19:23.429Z,20.53
2023-04-07T05:21:51.566Z,19.57
2023-04-07T05:24:19.817Z,19.07
2023-04-07T05:26:48.002Z,19.53
2023-04-07T05:29:17.448Z,20.10
2023-04-07T05:31:45.505Z,19.57
2023-04-07T05:34:22.381Z,18.40
2023-04-07T05:36:56.378Z,17.53
2023-04-07T05:39:33.356Z,18.70
2023-04-07T05:42:01.792Z,20.90
2023-04-07T05:44:31.232Z,18.30
2023-04-07T05:46:59.169Z,19.67
2023-04-07T05:49:27.212Z,20.93
2023-04-07T05:51:55.453Z,20.57
2023-04-07T05:54:23.415Z,20.70
2023-04-07T05:56:51.475Z,20.53
2023-04-07T05:59:19.385Z,22.80
2023-04-07T06:01:48.881Z,23.23
2023-04-07T06:04:16.926Z,25.43
2023-04-07T06:06:44.920Z,23.97
2023-04-07T06:09:12.896Z,24.00
2023-04-07T06:11:40.945Z,23.73
2023-04-07T06:14:08.996Z,23.97
2023-04-07T06:16:37.006Z,21.50
2023-04-07T06:19:08.332Z,22.80
2023-04-07T06:21:38.112Z,23.70
2023-04-07T06:24:06.663Z,21.30
2023-04-07T06:26:34.804Z,19.90
2023-04-07T06:29:02.910Z,18.13
2023-04-07T06:31:30.901Z,14.60
2023-04-07T06:33:59.049Z,13.57
2023-04-07T06:36:29.180Z,14.40
2023-04-07T06:38:57.423Z,14.60
2023-04-07T06:41:27.648Z,14.50
2023-04-07T06:43:55.650Z,15.50
2023-04-07T06:46:23.693Z,15.57
2023-04-07T06:48:51.734Z,15.60
2023-04-07T06:51:19.841Z,15.07
2023-04-07T06:53:49.938Z,14.63
2023-04-07T06:56:18.065Z,15.10
2023-04-07T06:58:46.100Z,14.93
2023-04-07T07:01:14.052Z,15.13
2023-04-07T07:03:42.094Z,14.63
2023-04-07T07:06:11.258Z,14.68
2023-04-07T07:08:39.807Z,14.90
2023-04-07T07:11:09.467Z,15.00
2023-04-07T07:13:37.503Z,14.88
2023-04-07T07:16:06.062Z,15.93
2023-04-07T07:18:36.382Z,14.48
2023-04-07T07:21:04.577Z,15.80
2023-04-07T07:23:32.791Z,15.87
2023-04-07T07:26:00.769Z,16.10
2023-04-07T07:28:30.165Z,14.63
2023-04-07T07:30:58.295Z,14.43
2023-04-07T07:33:26.395Z,13.90
2023-04-07T07:35:54.339Z,14.93
2023-04-07T07:38:22.395Z,14.50
2023-04-07T07:40:50.611Z,14.17
2023-04-07T07:43:19.326Z,14.20
2023-04-07T07:45:48.671Z,14.53
2023-04-07T07:48:19.081Z,14.50
2023-04-07T07:50:48.004Z,13.63
2023-04-07T07:53:16.092Z,12.50
2023-04-07T07:55:44.060Z,12.73
2023-04-07T07:58:12.040Z,12.90
2023-04-07T08:00:40.115Z,11.50
2023-04-07T08:03:09.598Z,9.07
2023-04-07T08:05:37.916Z,10.10
2023-04-07T08:08:06.024Z,8.40
2023-04-07T08:10:34.093Z,7.90
2023-04-07T08:13:02.079Z,7.67
2023-04-07T08:15:30.068Z,7.97
2023-04-07T08:18:00.221Z,7.10
2023-04-07T08:20:29.642Z,6.90
2023-04-07T08:22:57.670Z,7.00
2023-04-07T08:25:25.852Z,6.70
2023-04-07T08:27:53.880Z,6.90
2023-04-07T08:30:22.392Z,7.40
2023-04-07T08:32:50.797Z,7.37
2023-04-07T08:35:18.812Z,7.73
2023-04-07T08:37:48.960Z,7.73
2023-04-07T08:40:17.395Z,8.00
2023-04-07T08:42:49.040Z,7.53
2023-04-07T08:45:19.109Z,7.47
2023-04-07T08:47:49.042Z,8.00
2023-04-07T08:50:19.307Z,7.93
2023-04-07T08:52:55.885Z,7.47
2023-04-07T08:55:24.241Z,7.70
2023-04-07T08:57:54.031Z,7.53
2023-04-07T09:00:22.574Z,7.90
2023-04-07T09:02:51.969Z,8.10
2023-04-07T09:05:21.525Z,7.30
2023-04-07T09:07:50.999Z,7.23
2023-04-07T09:10:19.035Z,7.03
2023-04-07T09:12:47.077Z,7.70
2023-04-07T09:15:16.496Z,7.83
2023-04-07T09:17:44.754Z,8.37
2023-04-07T09:20:12.958Z,7.83
2023-04-07T09:22:44.219Z,7.93
2023-04-07T09:25:16.771Z,8.83
2023-04-07T09:27:59.134Z,9.50
2023-04-07T09:30:27.624Z,13.33
2023-04-07T09:32:55.958Z,8.47
2023-04-07T09:35:24.820Z,9.20
2023-04-07T09:38:04.013Z,8.43
2023-04-07T09:40:33.770Z,8.20
2023-04-07T09:43:02.976Z,8.60
2023-04-07T09:45:35.025Z,8.33
2023-04-07T09:48:07.771Z,8.47
2023-04-07T09:50:37.182Z,9.23
2023-04-07T09:53:05.229Z,8.73
2023-04-07T09:55:35.131Z,8.87
2023-04-07T09:58:06.465Z,8.77
2023-04-07T10:00:34.970Z,8.73
2023-04-07T10:03:04.797Z,9.53
2023-04-07T10:05:33.874Z,9.00
2023-04-07T10:08:03.570Z,8.90
2023-04-07T10:10:32.810Z,8.27
2023-04-07T10:13:06.006Z,9.00
2023-04-07T10:15:34.649Z,9.20
2023-04-07T10:18:07.612Z,8.80
2023-04-07T10:20:41.095Z,9.57
2023-04-07T10:23:20.392Z,8.87
2023-04-07T10:25:52.704Z,9.87
2023-04-07T10:28:24.426Z,9.30
2023-04-07T10:30:53.175Z,8.90
2023-04-07T10:33:46.641Z,8.77
2023-04-07T10:36:14.945Z,9.07
2023-04-07T10:38:43.432Z,9.93
2023-04-07T10:41:33.469Z,8.80
2023-04-07T10:44:03.902Z,8.50
2023-04-07T10:47:11.246Z,9.00
2023-04-07T10:49:39.165Z,9.33
2023-04-07T10:52:26.112Z,9.87
2023-04-07T10:55:31.654Z,9.37
2023-04-07T10:58:28.951Z,8.17
2023-04-07T11:01:28.403Z,8.33
2023-04-07T11:03:59.713Z,9.33
2023-04-07T11:06:27.966Z,8.87
2023-04-07T11:08:56.243Z,7.97
2023-04-07T11:11:39.969Z,8.13
2023-04-07T11:14:08.251Z,8.53
2023-04-07T11:16:39.979Z,8.50
2023-04-07T11:19:08.341Z,9.37
2023-04-07T11:21:37.053Z,8.73
2023-04-07T11:24:05.837Z,8.43
2023-04-07T11:26:40.449Z,8.77
2023-04-07T11:29:09.218Z,9.23
2023-04-07T11:31:40.134Z,9.87
2023-04-07T11:34:09.328Z,9.87
2023-04-07T11:36:40.810Z,9.47
2023-04-07T11:39:20.824Z,9.60
2023-04-07T11:41:50.686Z,8.63
2023-04-07T11:44:18.856Z,9.50
2023-04-07T11:46:58.986Z,8.50
2023-04-07T11:49:29.189Z,8.87
2023-04-07T11:52:01.912Z,9.03
2023-04-07T11:54:41.183Z,9.03
2023-04-07T11:57:12.165Z,10.23
2023-04-07T11:59:40.956Z,9.03
2023-04-07T12:02:10.687Z,9.07
2023-04-07T12:04:40.772Z,9.17
2023-04-07T12:07:13.460Z,9.33
2023-04-07T12:09:41.799Z,9.57
2023-04-07T12:12:10.801Z,9.57
2023-04-07T12:14:39.433Z,9.50
2023-04-07T12:17:10.607Z,9.03
2023-04-07T12:19:40.093Z,9.13
2023-04-07T12:22:10.295Z,8.90
2023-04-07T12:24:38.199Z,9.50
2023-04-07T12:27:06.232Z,9.43
2023-04-07T12:29:35.296Z,12.53
2023-04-07T12:32:03.665Z,10.13
2023-04-07T12:34:31.792Z,9.73
2023-04-07T12:37:01.432Z,10.77
2023-04-07T12:39:29.423Z,9.70
2023-04-07T12:41:58.301Z,9.57
2023-04-07T12:44:28.636Z,10.67
2023-04-07T12:46:56.572Z,10.27
2023-04-07T12:49:24.520Z,9.70
2023-04-07T12:51:52.792Z,9.50
2023-04-07T12:54:23.008Z,10.13
2023-04-07T12:56:51.809Z,10.23
2023-04-07T12:59:19.846Z,10.07
2023-04-07T13:01:50.645Z,9.90
2023-04-07T13:04:19.596Z,9.60
2023-04-07T13:06:48.596Z,9.50
2023-04-07T13:09:16.628Z,9.90
2023-04-07T13:11:45.946Z,9.23
2023-04-07T13:14:15.127Z,9.53
2023-04-07T13:16:43.613Z,10.87
2023-04-07T13:19:11.655Z,9.63
2023-04-07T13:24:11.003Z,10.77
2023-04-07T13:26:38.975Z,10.23
2023-04-07T13:29:09.184Z,10.77
2023-04-07T13:31:37.328Z,9.90
2023-04-07T13:34:06.482Z,10.07
2023-04-07T13:36:34.511Z,10.27
2023-04-07T13:39:02.522Z,10.90
2023-04-07T13:41:30.966Z,9.67
2023-04-07T13:43:59.515Z,10.77
2023-04-07T13:46:31.321Z,11.73
2023-04-07T13:48:59.329Z,9.67
2023-04-07T13:51:28.188Z,9.90
2023-04-07T13:53:56.284Z,9.50
2023-04-07T13:56:24.822Z,10.37
2023-04-07T13:58:52.757Z,9.27
2023-04-07T14:01:20.931Z,9.77
2023-04-07T14:03:50.744Z,10.10
2023-04-07T14:06:18.957Z,10.30
2023-04-07T14:08:47.421Z,10.13
2023-04-07T14:11:18.880Z,10.80
2023-04-07T14:13:46.987Z,10.47
2023-04-07T14:16:15.266Z,10.83
2023-04-07T14:18:43.557Z,10.77
2023-04-07T14:21:12.836Z,11.27
2023-04-07T14:23:40.840Z,10.10
2023-04-07T14:26:12.333Z,10.77
2023-04-07T14:28:40.702Z,10.20
2023-04-07T14:31:14.282Z,11.33
2023-04-07T14:33:42.398Z,10.10
2023-04-07T14:36:10.706Z,9.33
2023-04-07T14:38:40.095Z,9.70
2023-04-07T14:41:10.264Z,11.53
2023-04-07T14:43:39.090Z,9.90
2023-04-07T14:46:07.272Z,10.33
2023-04-07T14:48:35.486Z,11.10
2023-04-07T14:51:09.598Z,11.43
2023-04-07T14:53:39.607Z,11.10
2023-04-07T14:56:08.490Z,10.13
2023-04-07T14:58:39.073Z,10.50
2023-04-07T15:01:07.501Z,10.90
2023-04-07T15:03:36.870Z,11.30
2023-04-07T15:06:08.569Z,11.30
2023-04-07T15:08:36.606Z,10.70
2023-04-07T15:11:07.444Z,10.30
2023-04-07T15:13:36.382Z,11.10
2023-04-07T15:16:08.890Z,10.17
2023-04-07T15:18:37.026Z,10.20
2023-04-07T15:21:05.172Z,12.37
2023-04-07T15:23:33.300Z,10.87
2023-04-07T15:26:01.485Z,11.40
2023-04-07T15:28:30.882Z,11.37
2023-04-07T15:30:59.020Z,10.47
2023-04-07T15:33:27.336Z,11.37
2023-04-07T15:35:55.552Z,11.23
2023-04-07T15:38:23.608Z,12.30
2023-04-07T15:40:51.760Z,11.07
2023-04-07T15:43:19.739Z,11.50
2023-04-07T15:45:49.542Z,10.63
2023-04-07T15:48:18.133Z,10.80
2023-04-07T15:50:46.255Z,10.60
2023-04-07T15:53:14.568Z,10.40
2023-04-07T15:55:44.296Z,11.10
2023-04-07T15:58:12.403Z,10.77
2023-04-07T16:00:41.234Z,10.30
2023-04-07T16:03:10.889Z,10.67
2023-04-07T16:05:39.227Z,10.80
2023-04-07T16:08:07.353Z,10.80
2023-04-07T16:10:35.347Z,10.67
2023-04-07T16:13:03.387Z,12.30
2023-04-07T16:15:39.902Z,12.40
2023-04-07T16:18:14.201Z,10.83
2023-04-07T16:20:42.285Z,10.13
2023-04-07T16:23:10.638Z,10.20
2023-04-07T16:25:38.647Z,10.77
2023-04-07T16:28:06.822Z,10.63
2023-04-07T16:30:34.965Z,10.37
2023-04-07T16:33:03.450Z,10.57
2023-04-07T16:35:33.013Z,11.33
2023-04-07T16:38:04.832Z,11.07
2023-04-07T16:40:33.956Z,11.83
2023-04-07T16:43:02.187Z,11.00
2023-04-07T16:45:30.201Z,10.73
2023-04-07T16:47:58.228Z,10.70
2023-04-07T16:50:26.330Z,10.70
2023-04-07T16:52:59.870Z,10.87
2023-04-07T16:55:27.966Z,10.40
2023-04-07T16:57:56.058Z,11.43
2023-04-07T17:00:26.570Z,11.17
2023-04-07T17:02:55.074Z,11.60
2023-04-07T17:05:24.076Z,12.57
2023-04-07T17:07:52.142Z,11.70
2023-04-07T17:10:21.748Z,10.90
2023-04-07T17:12:54.429Z,11.57
2023-04-07T17:15:22.645Z,10.80
2023-04-07T17:17:51.226Z,10.33
2023-04-07T17:20:19.336Z,10.53
2023-04-07T17:22:49.088Z,11.00
2023-04-07T17:25:19.016Z,10.90
2023-04-07T17:27:49.215Z,11.17
2023-04-07T17:30:18.441Z,11.17
2023-04-07T17:32:46.434Z,11.43
2023-04-07T17:35:14.363Z,11.00
2023-04-07T17:37:42.574Z,11.97
2023-04-07T17:40:11.627Z,14.47
2023-04-07T17:42:39.936Z,13.07
2023-04-07T17:45:11.016Z,11.67
2023-04-07T17:47:39.039Z,10.83
2023-04-07T17:50:08.310Z,10.10
2023-04-07T17:52:36.566Z,10.57
2023-04-07T17:55:04.748Z,11.27
2023-04-07T17:57:33.790Z,11.63
2023-04-07T18:00:01.857Z,12.90
2023-04-07T18:02:31.672Z,12.13
2023-04-07T18:05:01.531Z,12.67
2023-04-07T18:07:29.977Z,13.43
2023-04-07T18:09:58.766Z,15.40
2023-04-07T18:12:26.912Z,15.87
2023-04-07T18:14:54.900Z,13.93
2023-04-07T18:17:22.911Z,14.20
2023-04-07T18:19:52.452Z,13.07
2023-04-07T18:22:20.716Z,12.67
2023-04-07T18:24:48.637Z,13.07
2023-04-07T18:27:16.711Z,15.40
2023-04-07T18:29:44.796Z,14.30
2023-04-07T18:32:13.045Z,13.00
2023-04-07T18:34:41.309Z,11.60
2023-04-07T18:37:10.694Z,13.27
2023-04-07T18:39:38.767Z,13.37
2023-04-07T18:42:06.863Z,13.97
2023-04-07T18:44:35.117Z,14.20
2023-04-07T18:47:03.240Z,13.50
2023-04-07T18:49:31.313Z,12.10
2023-04-07T18:51:59.942Z,14.10
2023-04-07T18:54:32.362Z,13.33
2023-04-07T18:57:00.546Z,13.80
2023-04-07T18:59:28.553Z,11.80
2023-04-07T19:01:57.247Z,12.17
2023-04-07T19:04:26.003Z,10.83
2023-04-07T19:06:54.446Z,10.03
2023-04-07T19:09:23.092Z,11.20
2023-04-07T19:11:52.614Z,13.30
2023-04-07T19:14:20.708Z,13.50
2023-04-07T19:16:51.013Z,13.47
2023-04-07T19:19:19.175Z,14.20
2023-04-07T19:21:47.229Z,12.57
2023-04-07T19:24:18.960Z,14.30
2023-04-07T19:26:47.165Z,16.03
2023-04-07T19:29:16.546Z,14.73
2023-04-07T19:31:45.205Z,15.20
2023-04-07T19:34:15.595Z,15.20
2023-04-07T19:36:43.621Z,15.33
2023-04-07T19:39:11.775Z,15.60
2023-04-07T19:41:42.303Z,16.17
2023-04-07T19:44:10.473Z,15.40
2023-04-07T19:46:39.884Z,16.30
2023-04-07T19:49:07.926Z,16.63
2023-04-07T19:51:36.506Z,16.63
2023-04-07T19:54:04.609Z,15.73
2023-04-07T19:56:32.557Z,16.03
2023-04-07T19:59:00.514Z,16.37
2023-04-07T20:01:28.968Z,15.97
2023-04-07T20:03:58.446Z,17.23
2023-04-07T20:06:27.364Z,18.13
2023-04-07T20:08:55.690Z,18.10
2023-04-07T20:11:23.667Z,17.73
2023-04-07T20:13:51.734Z,17.33
2023-04-07T20:16:22.371Z,16.30
2023-04-07T20:18:52.083Z,18.57
2023-04-07T20:21:21.822Z,17.50
2023-04-07T20:23:49.869Z,16.03
2023-04-07T20:26:17.991Z,17.27
2023-04-07T20:28:45.957Z,21.37
2023-04-07T20:31:14.039Z,17.73
2023-04-07T20:33:42.507Z,17.67
2023-04-07T20:36:10.694Z,16.73
2023-04-07T20:38:43.711Z,17.73
2023-04-07T20:41:13.594Z,17.83
2023-04-07T20:43:41.746Z,18.50
2023-04-07T20:46:09.895Z,17.73
2023-04-07T20:48:38.222Z,17.63
2023-04-07T20:51:06.120Z,17.37
2023-04-07T20:53:34.047Z,17.43
2023-04-07T20:56:03.525Z,16.40
2023-04-07T20:58:31.830Z,16.87
2023-04-07T21:01:00.978Z,15.53
2023-04-07T21:03:31.035Z,16.53
2023-04-07T21:05:59.116Z,16.00
2023-04-07T21:08:27.177Z,17.00
2023-04-07T21:10:56.012Z,15.83
2023-04-07T21:13:27.225Z,16.90
2023-04-07T21:15:55.343Z,18.77
2023-04-07T21:18:23.376Z,18.07
2023-04-07T21:20:51.488Z,18.70
2023-04-07T21:23:19.544Z,23.73
2023-04-07T21:25:47.765Z,25.53
2023-04-07T21:28:15.783Z,30.87
2023-04-07T21:30:45.221Z,31.23
2023-04-07T21:33:14.209Z,28.50
2023-04-07T21:35:42.321Z,25.90
2023-04-07T21:38:10.349Z,26.50
2023-04-07T21:40:38.320Z,24.97
2023-04-07T21:43:06.773Z,26.60
2023-04-07T21:45:34.971Z,25.23
2023-04-07T21:48:04.528Z,24.03
2023-04-07T21:50:32.867Z,25.87
2023-04-07T21:53:00.834Z,25.83
2023-04-07T21:55:28.837Z,26.10
2023-04-07T21:57:58.157Z,26.67
2023-04-07T22:00:26.281Z,25.83
2023-04-07T22:02:54.828Z,24.40
2023-04-07T22:05:24.420Z,25.90
2023-04-07T22:07:52.644Z,27.80
2023-04-07T22:10:20.601Z,27.87
2023-04-07T22:12:48.578Z,27.30
2023-04-07T22:15:16.645Z,24.43
2023-04-07T22:17:45.196Z,24.57
2023-04-07T22:20:13.486Z,24.47
2023-04-07T22:22:44.011Z,22.90
2023-04-07T22:25:12.124Z,22.77
2023-04-07T22:27:40.151Z,24.53
2023-04-07T22:30:10.941Z,23.53
2023-04-07T22:32:38.956Z,21.93
2023-04-07T22:35:07.291Z,22.27
2023-04-07T22:37:35.385Z,22.43
2023-04-07T22:40:05.079Z,23.00
2023-04-07T22:42:33.046Z,21.13
2023-04-07T22:45:01.010Z,23.57
2023-04-07T22:47:29.027Z,24.73
2023-04-07T22:49:58.328Z,26.00
2023-04-07T22:52:26.308Z,26.23
2023-04-07T22:54:54.215Z,26.03
2023-04-07T22:57:23.567Z,22.37
2023-04-07T22:59:51.569Z,21.80
2023-04-07T23:02:19.617Z,20.43
2023-04-07T23:04:47.680Z,20.77
2023-04-07T23:07:16.097Z,19.07
2023-04-07T23:09:44.034Z,18.33
2023-04-07T23:12:11.965Z,18.67
2023-04-07T23:14:41.420Z,19.40
2023-04-07T23:17:09.440Z,19.20
2023-04-07T23:19:37.455Z,18.70
2023-04-07T23:22:05.437Z,19.67
2023-04-07T23:24:33.385Z,19.77
2023-04-07T23:27:02.045Z,20.17
2023-04-07T23:29:29.984Z,19.33
2023-04-07T23:31:59.396Z,20.87
2023-04-07T23:34:27.462Z,19.73
2023-04-07T23:36:55.427Z,20.63
2023-04-07T23:39:23.458Z,20.03
2023-04-07T23:41:53.046Z,21.00
2023-04-07T23:44:21.801Z,20.60
2023-04-07T23:46:49.789Z,21.27
2023-04-07T23:49:19.241Z,21.90
2023-04-07T23:51:47.441Z,22.90
2023-04-07T23:54:15.356Z,22.57
2023-04-07T23:56:45.915Z,23.20
2023-04-07T23:59:14.026Z,20.90
